CheckWX is a tool to help pilots better visualize weather data.  It is not intended as a substitute for an official pre-flight weather briefing.

07:18:45 UTC

UATE TAF
Aktau Airport
Aktau, Kazakhstan
TAF UATE 200506Z 2006/2106 16005MPS CAVOK TX36/2008Z TN20/2101Z BECMG 2007/2009 27008MPS BECMG 2015/2017 01009G15MPS

Jun-20@
06:00 UTC

Jun-20 @ 06:00 UTC

Jun-20@
07:00 UTC

Jun-20 @ 07:00 UTC

TAF UATE 200506Z 2006/2106 16005MPS CAVOK TX36/2008Z TN20/2101Z

Expired

Wind
  • 160° at 10 KTS
Cloud Levels
  • No significant clouds

Jun-20@
07:00 UTC

Jun-20 @ 07:00 UTC

Jun-20@
15:00 UTC

Jun-20 @ 15:00 UTC

BECMG 2007/2009 27008MPS

Becoming

Becoming Conditions expected by Thu, Jun 20, 2019 @ 09:00 UTC

Wind
  • 270° at 16 KTS
Cloud Levels
  • No significant clouds

Jun-20@
15:00 UTC

Jun-20 @ 15:00 UTC

Jun-21@
06:00 UTC

Jun-21 @ 06:00 UTC

BECMG 2015/2017 01009G15MPS

Becoming

Becoming Conditions expected by Thu, Jun 20, 2019 @ 17:00 UTC

Wind
  • 010° at 17 KTS
  • {Gusting to 29 KTS
Cloud Levels
  • No significant clouds